createdAt,value
2023-01-20T00:01:32.645Z,37.30
2023-01-20T00:04:00.416Z,36.60
2023-01-20T00:06:28.345Z,35.33
2023-01-20T00:08:57.788Z,33.73
2023-01-20T00:11:25.776Z,38.10
2023-01-20T00:13:57.995Z,37.47
2023-01-20T00:16:26.368Z,36.93
2023-01-20T00:18:53.901Z,39.07
2023-01-20T00:21:21.881Z,43.03
2023-01-20T00:23:50.492Z,51.63
2023-01-20T00:26:20.208Z,58.87
2023-01-20T00:28:48.215Z,55.97
2023-01-20T00:31:18.416Z,59.47
2023-01-20T00:33:47.278Z,64.90
2023-01-20T00:36:16.271Z,62.73
2023-01-20T00:38:43.988Z,75.63
2023-01-20T00:41:11.841Z,79.53
2023-01-20T00:43:39.299Z,80.00
2023-01-20T00:46:06.774Z,67.63
2023-01-20T00:48:34.806Z,64.87
2023-01-20T00:51:02.298Z,65.00
2023-01-20T00:53:30.225Z,63.17
2023-01-20T00:55:57.389Z,64.53
2023-01-20T00:58:25.121Z,63.20
2023-01-20T01:00:53.712Z,49.17
2023-01-20T01:03:21.057Z,49.67
2023-01-20T01:05:48.408Z,49.57
2023-01-20T01:08:15.740Z,45.70
2023-01-20T01:10:42.963Z,43.80
2023-01-20T01:13:10.639Z,49.17
2023-01-20T01:15:38.024Z,47.40
2023-01-20T01:18:05.309Z,59.27
2023-01-20T01:20:33.079Z,47.00
2023-01-20T01:23:00.618Z,46.43
2023-01-20T01:25:28.099Z,45.30
2023-01-20T01:27:55.199Z,51.60
2023-01-20T01:30:22.580Z,104.50
2023-01-20T01:32:49.876Z,80.33
2023-01-20T01:35:17.205Z,72.13
2023-01-20T01:37:44.473Z,69.63
2023-01-20T01:40:12.047Z,68.37
2023-01-20T01:42:40.827Z,66.77
2023-01-20T01:45:12.405Z,69.07
2023-01-20T01:47:46.766Z,67.53
2023-01-20T01:50:20.766Z,69.67
2023-01-20T01:52:51.470Z,65.90
2023-01-20T01:55:21.256Z,59.63
2023-01-20T01:57:50.196Z,57.80
2023-01-20T02:00:17.587Z,60.87
2023-01-20T02:02:46.442Z,59.30
2023-01-20T02:05:16.534Z,60.00
2023-01-20T02:07:46.740Z,57.47
2023-01-20T02:10:15.064Z,57.93
2023-01-20T02:12:45.064Z,52.80
2023-01-20T02:15:12.886Z,54.23
2023-01-20T02:18:24.672Z,54.70
2023-01-20T02:21:10.937Z,53.60
2023-01-20T02:23:56.959Z,54.47
2023-01-20T02:27:02.999Z,52.40
2023-01-20T02:29:52.505Z,47.80
2023-01-20T02:32:46.356Z,42.70
2023-01-20T02:35:40.399Z,45.73
2023-01-20T02:38:46.597Z,45.97
2023-01-20T02:41:42.068Z,43.20
2023-01-20T02:44:30.905Z,42.57
2023-01-20T02:47:25.692Z,50.77
2023-01-20T02:50:09.339Z,53.60
2023-01-20T02:52:42.492Z,68.17
2023-01-20T02:55:20.693Z,67.80
2023-01-20T02:57:52.653Z,55.43
2023-01-20T03:00:42.901Z,60.47
2023-01-20T03:03:18.318Z,61.70
2023-01-20T03:05:52.607Z,55.60
2023-01-20T03:08:22.062Z,59.10
2023-01-20T03:10:51.610Z,57.80
2023-01-20T03:13:30.231Z,56.37
2023-01-20T03:16:14.733Z,54.30
2023-01-20T03:18:42.145Z,53.50
2023-01-20T03:21:10.684Z,51.37
2023-01-20T03:23:46.592Z,45.23
2023-01-20T03:26:16.520Z,42.70
2023-01-20T03:28:45.231Z,40.97
2023-01-20T03:31:18.927Z,42.37
2023-01-20T03:33:48.863Z,56.50
2023-01-20T03:36:18.251Z,52.80
2023-01-20T03:38:46.596Z,48.20
2023-01-20T03:41:50.140Z,45.77
2023-01-20T03:44:30.600Z,43.00
2023-01-20T03:47:00.452Z,43.93
2023-01-20T03:49:59.770Z,43.13
2023-01-20T03:52:47.161Z,39.87
2023-01-20T03:55:44.141Z,38.10
2023-01-20T03:58:22.366Z,40.73
2023-01-20T04:00:51.250Z,41.60
2023-01-20T04:03:29.424Z,41.97
2023-01-20T04:06:00.088Z,45.60
2023-01-20T04:08:33.655Z,45.57
2023-01-20T04:11:04.589Z,48.03
2023-01-20T04:13:31.850Z,48.00
2023-01-20T04:16:01.078Z,55.23
2023-01-20T04:18:28.533Z,52.23
2023-01-20T04:21:02.613Z,49.27
2023-01-20T04:23:53.074Z,47.97
2023-01-20T04:26:20.437Z,49.63
2023-01-20T04:28:47.601Z,51.70
2023-01-20T04:31:29.175Z,53.20
2023-01-20T04:33:57.301Z,50.70
2023-01-20T04:36:24.522Z,50.40
2023-01-20T04:38:51.711Z,47.80
2023-01-20T04:41:19.031Z,45.47
2023-01-20T04:43:47.198Z,48.20
2023-01-20T04:46:15.890Z,51.87
2023-01-20T04:48:45.623Z,50.50
2023-01-20T04:51:13.280Z,49.67
2023-01-20T04:53:40.496Z,49.83
2023-01-20T04:56:15.478Z,46.17
2023-01-20T04:58:43.234Z,46.13
2023-01-20T05:01:10.592Z,47.00
2023-01-20T05:03:38.510Z,46.83
2023-01-20T05:06:09.004Z,44.83
2023-01-20T05:08:36.270Z,40.67
2023-01-20T05:11:03.932Z,42.93
2023-01-20T05:13:31.176Z,41.63
2023-01-20T05:15:59.006Z,39.10
2023-01-20T05:18:27.273Z,39.97
2023-01-20T05:20:54.444Z,38.87
2023-01-20T05:23:21.590Z,39.90
2023-01-20T05:25:52.832Z,39.43
2023-01-20T05:28:20.509Z,40.20
2023-01-20T05:30:48.737Z,43.00
2023-01-20T05:33:16.102Z,43.90
2023-01-20T05:35:43.288Z,41.83
2023-01-20T05:38:10.505Z,43.63
2023-01-20T05:40:37.764Z,47.67
2023-01-20T05:43:05.215Z,47.93
2023-01-20T05:45:32.756Z,62.87
2023-01-20T05:48:00.979Z,60.97
2023-01-20T05:50:29.672Z,56.97
2023-01-20T05:52:56.875Z,56.70
2023-01-20T05:55:24.105Z,52.30
2023-01-20T05:57:51.457Z,78.90
2023-01-20T06:00:19.208Z,91.73
2023-01-20T06:02:46.540Z,88.33
2023-01-20T06:05:14.450Z,79.43
2023-01-20T06:07:41.828Z,80.30
2023-01-20T06:10:10.238Z,70.43
2023-01-20T06:12:37.358Z,61.60
2023-01-20T06:15:05.594Z,70.17
2023-01-20T06:17:32.823Z,132.40
2023-01-20T06:20:00.742Z,151.43
2023-01-20T06:22:28.180Z,122.30
2023-01-20T06:24:55.320Z,106.03
2023-01-20T06:27:22.686Z,103.17
2023-01-20T06:29:51.386Z,88.23
2023-01-20T06:32:18.956Z,79.07
2023-01-20T06:34:46.408Z,91.63
2023-01-20T06:37:13.698Z,96.93
2023-01-20T06:39:40.869Z,92.00
2023-01-20T06:42:08.299Z,82.57
2023-01-20T06:44:36.510Z,68.17
2023-01-20T06:47:04.064Z,58.40
2023-01-20T06:49:31.352Z,61.10
2023-01-20T06:51:58.912Z,60.07
2023-01-20T06:54:27.387Z,62.73
2023-01-20T06:56:54.640Z,55.80
2023-01-20T06:59:21.824Z,51.90
2023-01-20T07:01:49.462Z,53.10
2023-01-20T07:04:16.758Z,55.70
2023-01-20T07:06:43.929Z,75.13
2023-01-20T07:09:12.496Z,76.47
2023-01-20T07:11:40.209Z,71.60
2023-01-20T07:14:08.111Z,66.97
2023-01-20T07:16:36.107Z,61.40
2023-01-20T07:19:03.415Z,56.70
2023-01-20T07:21:31.027Z,54.87
2023-01-20T07:24:01.756Z,56.37
2023-01-20T07:26:29.259Z,53.73
2023-01-20T07:28:58.878Z,59.17
2023-01-20T07:31:28.301Z,61.37
2023-01-20T07:33:56.840Z,63.80
2023-01-20T07:36:24.479Z,61.83
2023-01-20T07:38:52.942Z,71.47
2023-01-20T07:41:21.036Z,75.07
2023-01-20T07:43:50.674Z,75.60
2023-01-20T07:46:18.436Z,75.50
2023-01-20T07:48:45.657Z,71.77
2023-01-20T07:51:14.196Z,78.93
2023-01-20T07:53:46.843Z,76.17
2023-01-20T07:56:19.554Z,83.03
2023-01-20T07:58:47.784Z,103.07
2023-01-20T08:01:18.019Z,82.00
2023-01-20T08:03:45.935Z,66.07
2023-01-20T08:06:15.014Z,56.53
2023-01-20T08:08:42.644Z,54.30
2023-01-20T08:11:12.200Z,54.73
2023-01-20T08:13:40.187Z,72.87
2023-01-20T08:16:09.931Z,71.93
2023-01-20T08:18:37.561Z,94.87
2023-01-20T08:21:08.489Z,91.30
2023-01-20T08:23:36.717Z,86.83
2023-01-20T08:26:06.758Z,73.23
2023-01-20T08:28:36.261Z,68.83
2023-01-20T08:31:15.077Z,70.27
2023-01-20T08:33:43.282Z,68.33
2023-01-20T08:36:13.607Z,63.23
2023-01-20T08:38:41.709Z,58.07
2023-01-20T08:41:15.429Z,57.67
2023-01-20T08:43:42.842Z,53.10
2023-01-20T08:46:13.723Z,42.83
2023-01-20T08:48:42.853Z,40.40
2023-01-20T08:51:14.512Z,47.77
2023-01-20T08:53:42.411Z,50.20
2023-01-20T08:56:10.674Z,52.10
2023-01-20T08:58:38.075Z,61.60
2023-01-20T09:01:10.956Z,70.23
2023-01-20T09:03:38.669Z,79.20
2023-01-20T09:06:06.826Z,81.70
2023-01-20T09:08:34.624Z,69.60
2023-01-20T09:11:05.980Z,93.50
2023-01-20T09:13:33.695Z,80.17
2023-01-20T09:16:01.048Z,64.97
2023-01-20T09:18:28.449Z,56.17
2023-01-20T09:20:57.335Z,47.57
2023-01-20T09:23:24.766Z,43.40
2023-01-20T09:25:52.076Z,37.30
2023-01-20T09:28:19.418Z,33.90
2023-01-20T09:30:46.746Z,35.67
2023-01-20T09:33:14.388Z,57.70
2023-01-20T09:35:41.628Z,81.03
2023-01-20T09:38:28.775Z,66.10
2023-01-20T09:41:42.317Z,79.97
2023-01-20T09:44:22.585Z,53.83
2023-01-20T09:47:27.278Z,37.53
2023-01-20T09:50:35.760Z,30.20
2023-01-20T09:53:39.758Z,27.20
2023-01-20T09:56:17.147Z,27.80
2023-01-20T09:59:10.837Z,27.67
2023-01-20T10:01:44.031Z,29.20
2023-01-20T10:04:26.220Z,33.47
2023-01-20T10:07:03.472Z,33.23
2023-01-20T10:09:56.938Z,34.90
2023-01-20T10:12:42.731Z,37.63
2023-01-20T10:15:30.152Z,37.53
2023-01-20T10:18:03.558Z,35.57
2023-01-20T10:20:47.375Z,37.47
2023-01-20T10:23:29.692Z,37.30
2023-01-20T10:26:04.954Z,36.23
2023-01-20T10:28:38.226Z,38.27
2023-01-20T10:31:05.926Z,33.40
2023-01-20T10:33:40.944Z,35.17
2023-01-20T10:36:30.126Z,34.67
2023-01-20T10:39:30.915Z,32.73
2023-01-20T10:42:05.743Z,32.60
2023-01-20T10:44:36.396Z,34.00
2023-01-20T10:47:06.725Z,33.03
2023-01-20T10:50:16.909Z,33.67
2023-01-20T10:52:47.075Z,35.77
2023-01-20T10:55:51.563Z,39.83
2023-01-20T10:58:38.260Z,39.40
2023-01-20T11:01:09.588Z,41.90
2023-01-20T11:03:41.191Z,41.03
2023-01-20T11:06:17.744Z,45.40
2023-01-20T11:08:45.062Z,50.13
2023-01-20T11:11:27.217Z,36.60
2023-01-20T11:13:54.529Z,41.03
2023-01-20T11:16:32.301Z,33.60
2023-01-20T11:19:02.554Z,38.60
2023-01-20T11:21:37.200Z,35.03
2023-01-20T11:24:28.309Z,34.00
2023-01-20T11:27:06.424Z,47.10
2023-01-20T11:30:02.923Z,69.67
2023-01-20T11:32:40.420Z,217.30
2023-01-20T11:35:23.124Z,83.83
2023-01-20T11:37:51.294Z,47.73
2023-01-20T11:40:22.781Z,51.93
2023-01-20T11:42:51.979Z,48.40
2023-01-20T11:45:34.952Z,42.43
2023-01-20T11:48:16.101Z,47.17
2023-01-20T11:50:50.293Z,44.93
2023-01-20T11:53:20.657Z,46.93
2023-01-20T11:56:00.449Z,45.80
2023-01-20T11:58:33.713Z,41.83
2023-01-20T12:01:08.627Z,42.13
2023-01-20T12:04:03.677Z,44.17
2023-01-20T12:06:36.837Z,41.97
2023-01-20T12:09:11.257Z,42.03
2023-01-20T12:11:45.500Z,39.50
2023-01-20T12:14:30.390Z,37.70
2023-01-20T12:17:15.924Z,30.47
2023-01-20T12:20:21.821Z,28.43
2023-01-20T12:23:07.152Z,33.07
2023-01-20T12:25:57.506Z,30.40
2023-01-20T12:28:46.519Z,30.77
2023-01-20T12:31:20.318Z,64.07
2023-01-20T12:33:54.074Z,81.27
2023-01-20T12:36:42.590Z,34.27
2023-01-20T12:39:28.558Z,29.17
2023-01-20T12:42:10.477Z,50.30
2023-01-20T12:45:05.629Z,47.33
2023-01-20T12:48:03.137Z,41.47
2023-01-20T12:50:57.355Z,31.53
2023-01-20T12:53:46.415Z,29.47
2023-01-20T12:56:45.564Z,31.70
2023-01-20T12:59:24.934Z,32.73
2023-01-20T13:02:08.673Z,28.37
2023-01-20T13:05:09.531Z,29.97
2023-01-20T13:07:36.644Z,29.27
2023-01-20T13:10:30.732Z,27.73
2023-01-20T13:13:55.953Z,31.90
2023-01-20T13:16:49.787Z,29.97
2023-01-20T13:19:39.286Z,32.37
2023-01-20T13:22:20.607Z,33.70
2023-01-20T13:24:56.477Z,32.67
2023-01-20T13:27:36.281Z,33.13
2023-01-20T13:30:07.002Z,30.50
2023-01-20T13:32:43.684Z,32.03
2023-01-20T13:35:25.813Z,32.10
2023-01-20T13:37:59.248Z,30.63
2023-01-20T13:40:38.502Z,32.50
2023-01-20T13:43:26.983Z,32.57
2023-01-20T13:46:03.804Z,31.43
2023-01-20T13:48:32.903Z,35.07
2023-01-20T13:51:27.562Z,39.10
2023-01-20T13:53:54.693Z,35.40
2023-01-20T13:56:24.922Z,37.53
2023-01-20T13:58:52.681Z,34.87
2023-01-20T14:01:19.938Z,33.47
2023-01-20T14:04:04.513Z,31.53
2023-01-20T14:06:34.385Z,33.30
2023-01-20T14:09:02.880Z,33.23
2023-01-20T14:11:31.644Z,33.77
2023-01-20T14:14:02.172Z,34.60
2023-01-20T14:16:37.097Z,35.60
2023-01-20T14:19:23.614Z,35.63
2023-01-20T14:22:00.769Z,35.43
2023-01-20T14:24:37.717Z,37.47
2023-01-20T14:27:08.528Z,38.37
2023-01-20T14:29:36.050Z,41.37
2023-01-20T14:32:22.176Z,47.47
2023-01-20T14:34:50.220Z,48.20
2023-01-20T14:37:26.430Z,50.13
2023-01-20T14:39:56.975Z,47.37
2023-01-20T14:42:25.653Z,50.27
2023-01-20T14:44:54.714Z,51.60
2023-01-20T14:47:24.305Z,52.77
2023-01-20T14:49:54.020Z,51.87
2023-01-20T14:52:25.595Z,49.30
2023-01-20T14:54:56.450Z,49.40
2023-01-20T14:57:25.621Z,49.87
2023-01-20T15:00:14.571Z,51.70
2023-01-20T15:03:10.016Z,50.00
2023-01-20T15:05:40.849Z,54.43
2023-01-20T15:08:26.024Z,56.23
2023-01-20T15:11:18.712Z,60.00
2023-01-20T15:14:10.613Z,57.53
2023-01-20T15:16:39.085Z,64.47
2023-01-20T15:19:18.772Z,59.73
2023-01-20T15:21:49.508Z,55.30
2023-01-20T15:24:22.566Z,56.00
2023-01-20T15:26:54.410Z,55.23
2023-01-20T15:29:40.143Z,60.53
2023-01-20T15:32:12.846Z,56.90
2023-01-20T15:34:40.090Z,54.03
2023-01-20T15:37:17.420Z,56.93
2023-01-20T15:39:44.800Z,58.30
2023-01-20T15:42:12.557Z,55.93
2023-01-20T15:44:39.783Z,53.17
2023-01-20T15:47:26.117Z,52.33
2023-01-20T15:49:53.358Z,48.67
2023-01-20T15:52:20.586Z,52.47
2023-01-20T15:54:47.766Z,50.83
2023-01-20T15:57:17.122Z,51.77
2023-01-20T15:59:46.224Z,50.57
2023-01-20T16:02:22.116Z,51.23
2023-01-20T16:04:49.806Z,53.57
2023-01-20T16:07:19.003Z,53.47
2023-01-20T16:09:47.168Z,51.57
2023-01-20T16:12:16.206Z,52.50
2023-01-20T16:14:43.846Z,53.03
2023-01-20T16:17:16.907Z,50.70
2023-01-20T16:19:44.296Z,48.40
2023-01-20T16:22:11.428Z,49.60
2023-01-20T16:24:38.766Z,51.13
2023-01-20T16:27:21.432Z,48.60
2023-01-20T16:29:49.571Z,47.40
2023-01-20T16:32:18.287Z,46.40
2023-01-20T16:34:47.254Z,46.70
2023-01-20T16:37:15.002Z,48.27
2023-01-20T16:39:42.320Z,49.13
2023-01-20T16:42:15.441Z,47.50
2023-01-20T16:44:42.765Z,47.20
2023-01-20T16:47:10.272Z,45.87
2023-01-20T16:49:38.779Z,45.57
2023-01-20T16:52:06.571Z,46.87
2023-01-20T16:54:35.793Z,45.40
2023-01-20T16:57:03.059Z,46.87
2023-01-20T16:59:30.466Z,44.90
2023-01-20T17:01:57.640Z,42.90
2023-01-20T17:04:24.847Z,44.67
2023-01-20T17:06:53.098Z,44.13
2023-01-20T17:09:20.331Z,43.83
2023-01-20T17:11:47.916Z,43.70
2023-01-20T17:14:15.840Z,41.93
2023-01-20T17:16:43.640Z,43.43
2023-01-20T17:19:11.355Z,43.03
2023-01-20T17:21:39.466Z,43.77
2023-01-20T17:24:07.327Z,42.83
2023-01-20T17:26:35.421Z,42.40
2023-01-20T17:29:05.422Z,43.43
2023-01-20T17:31:36.089Z,41.27
2023-01-20T17:34:04.976Z,44.83
2023-01-20T17:36:35.221Z,44.20
2023-01-20T17:39:07.210Z,45.47
2023-01-20T17:41:35.053Z,44.30
2023-01-20T17:44:04.240Z,46.53
2023-01-20T17:46:32.159Z,45.17
2023-01-20T17:49:01.814Z,48.50
2023-01-20T17:51:30.270Z,52.40
2023-01-20T17:54:03.602Z,48.07
2023-01-20T17:56:31.585Z,46.90
2023-01-20T17:58:59.036Z,45.87
2023-01-20T18:01:28.759Z,47.33
2023-01-20T18:03:59.043Z,46.67
2023-01-20T18:06:28.362Z,48.60
2023-01-20T18:08:58.165Z,42.63
2023-01-20T18:11:27.904Z,43.93
2023-01-20T18:13:57.008Z,44.23
2023-01-20T18:16:28.654Z,46.10
2023-01-20T18:18:59.035Z,45.53
2023-01-20T18:21:34.676Z,47.73
2023-01-20T18:24:04.199Z,46.13
2023-01-20T18:26:34.992Z,47.53
2023-01-20T18:29:05.063Z,46.93
2023-01-20T18:31:33.945Z,47.93
2023-01-20T18:34:04.140Z,47.43
2023-01-20T18:36:34.680Z,65.47
2023-01-20T18:39:08.030Z,51.87
2023-01-20T18:41:37.856Z,48.10
2023-01-20T18:44:05.805Z,48.57
2023-01-20T18:46:35.032Z,51.80
2023-01-20T18:49:02.461Z,49.87
2023-01-20T18:51:31.241Z,49.83
2023-01-20T18:54:07.912Z,51.90
2023-01-20T18:56:35.514Z,51.27
2023-01-20T18:59:05.062Z,49.93
2023-01-20T19:01:35.341Z,49.20
2023-01-20T19:04:04.305Z,52.30
2023-01-20T19:06:36.292Z,53.00
2023-01-20T19:09:04.744Z,55.93
2023-01-20T19:11:36.522Z,54.93
2023-01-20T19:14:04.366Z,57.30
2023-01-20T19:16:34.657Z,59.17
2023-01-20T19:19:04.634Z,63.10
2023-01-20T19:21:34.091Z,63.07
2023-01-20T19:24:07.139Z,65.10
2023-01-20T19:26:36.757Z,64.23
2023-01-20T19:29:06.866Z,62.30
2023-01-20T19:31:36.823Z,60.10
2023-01-20T19:34:04.676Z,59.67
2023-01-20T19:36:32.817Z,62.60
2023-01-20T19:39:01.276Z,61.27
2023-01-20T19:41:33.669Z,61.00
2023-01-20T19:44:03.392Z,61.47
2023-01-20T19:46:34.150Z,64.03
2023-01-20T19:49:02.645Z,65.97
2023-01-20T19:51:31.861Z,63.23
2023-01-20T19:54:01.764Z,66.77
2023-01-20T19:56:32.046Z,64.30
2023-01-20T19:59:03.308Z,65.17
2023-01-20T20:01:32.402Z,64.27
2023-01-20T20:04:04.199Z,62.63
2023-01-20T20:06:49.781Z,67.30
2023-01-20T20:09:19.786Z,68.50
2023-01-20T20:11:48.143Z,62.03
2023-01-20T20:14:17.875Z,66.33
2023-01-20T20:16:45.509Z,64.70
2023-01-20T20:19:16.360Z,62.80
2023-01-20T20:21:43.917Z,65.17
2023-01-20T20:24:15.902Z,65.03
2023-01-20T20:26:44.730Z,64.23
2023-01-20T20:29:13.666Z,70.03
2023-01-20T20:31:41.895Z,67.07
2023-01-20T20:34:12.318Z,65.40
2023-01-20T20:36:40.264Z,68.13
2023-01-20T20:39:08.508Z,68.93
2023-01-20T20:41:36.837Z,70.40
2023-01-20T20:44:05.333Z,68.73
2023-01-20T20:46:32.952Z,69.67
2023-01-20T20:49:01.752Z,69.20
2023-01-20T20:51:32.158Z,67.53
2023-01-20T20:54:02.114Z,68.63
2023-01-20T20:56:33.883Z,66.90
2023-01-20T20:59:03.824Z,66.53
2023-01-20T21:01:34.418Z,69.70
2023-01-20T21:04:03.508Z,64.90
2023-01-20T21:06:32.005Z,67.27
2023-01-20T21:08:59.737Z,67.00
2023-01-20T21:11:27.465Z,68.73
2023-01-20T21:13:55.036Z,65.63
2023-01-20T21:16:23.499Z,67.50
2023-01-20T21:18:52.881Z,66.77
2023-01-20T21:21:20.543Z,66.93
2023-01-20T21:23:56.727Z,64.40
2023-01-20T21:26:26.651Z,63.57
2023-01-20T21:28:56.349Z,65.83
2023-01-20T21:31:26.955Z,65.00
2023-01-20T21:33:58.560Z,65.87
2023-01-20T21:36:26.969Z,65.30
2023-01-20T21:38:54.235Z,60.57
2023-01-20T21:41:22.169Z,60.17
2023-01-20T21:44:08.022Z,61.03
2023-01-20T21:46:39.378Z,60.23
2023-01-20T21:49:29.431Z,56.40
2023-01-20T21:52:15.839Z,57.40
2023-01-20T21:54:45.600Z,56.20
2023-01-20T21:57:13.519Z,56.53
2023-01-20T21:59:40.806Z,60.60
2023-01-20T22:02:09.183Z,58.27
2023-01-20T22:04:36.583Z,53.17
2023-01-20T22:07:04.033Z,49.03
2023-01-20T22:09:31.193Z,46.97
2023-01-20T22:11:58.410Z,44.73
2023-01-20T22:14:27.405Z,42.83
2023-01-20T22:16:54.545Z,42.00
2023-01-20T22:19:21.804Z,43.70
2023-01-20T22:21:49.048Z,42.23
2023-01-20T22:24:16.322Z,44.37
2023-01-20T22:26:47.843Z,44.80
2023-01-20T22:29:15.915Z,48.97
2023-01-20T22:31:43.361Z,49.53
2023-01-20T22:34:10.886Z,48.67
2023-01-20T22:36:38.412Z,46.23
2023-01-20T22:39:06.960Z,48.97
2023-01-20T22:41:34.363Z,44.70
2023-01-20T22:44:01.922Z,45.27
2023-01-20T22:46:30.289Z,44.77
2023-01-20T22:48:58.459Z,44.57
2023-01-20T22:51:28.072Z,45.17
2023-01-20T22:53:56.943Z,45.10
2023-01-20T22:56:26.780Z,48.73
2023-01-20T22:58:55.358Z,46.27
2023-01-20T23:01:34.171Z,46.77
2023-01-20T23:04:06.186Z,48.50
2023-01-20T23:06:35.395Z,43.97
2023-01-20T23:09:08.452Z,42.20
2023-01-20T23:11:40.460Z,45.37
2023-01-20T23:14:10.808Z,43.60
2023-01-20T23:16:38.143Z,41.77
2023-01-20T23:19:05.758Z,40.80
2023-01-20T23:21:33.489Z,40.83
2023-01-20T23:24:00.633Z,41.10
2023-01-20T23:26:30.244Z,45.73
2023-01-20T23:28:57.592Z,39.80
2023-01-20T23:31:25.856Z,40.50
2023-01-20T23:33:54.330Z,38.67
2023-01-20T23:36:26.835Z,41.03
2023-01-20T23:38:55.728Z,40.50
2023-01-20T23:41:23.291Z,41.97
2023-01-20T23:43:50.592Z,41.20
2023-01-20T23:46:18.145Z,43.17
2023-01-20T23:48:47.145Z,44.40
2023-01-20T23:51:15.269Z,41.40
2023-01-20T23:53:42.953Z,42.27
2023-01-20T23:56:19.830Z,41.63
2023-01-20T23:58:47.351Z,40.00
